sensor_id;sensor_type;location;lat;lon;timestamp;P1;durP1;ratioP1;P2;durP2;ratioP2
73684;SDS011;61985;51.070;14.064;2023-07-09T00:00:18;9.10;;;6.10;;
73684;SDS011;61985;51.070;14.064;2023-07-09T00:02:44;10.05;;;7.05;;
73684;SDS011;61985;51.070;14.064;2023-07-09T00:05:14;10.45;;;7.05;;
73684;SDS011;61985;51.070;14.064;2023-07-09T00:07:41;12.45;;;6.53;;
73684;SDS011;61985;51.070;14.064;2023-07-09T00:10:27;9.18;;;6.53;;
73684;SDS011;61985;51.070;14.064;2023-07-09T00:12:53;9.50;;;6.70;;
73684;SDS011;61985;51.070;14.064;2023-07-09T00:15:18;9.98;;;6.50;;
73684;SDS011;61985;51.070;14.064;2023-07-09T00:17:43;10.07;;;6.43;;
73684;SDS011;61985;51.070;14.064;2023-07-09T00:20:13;10.32;;;6.13;;
73684;SDS011;61985;51.070;14.064;2023-07-09T00:22:41;14.52;;;5.85;;
73684;SDS011;61985;51.070;14.064;2023-07-09T00:25:13;9.10;;;6.22;;
73684;SDS011;61985;51.070;14.064;2023-07-09T00:27:41;9.68;;;6.80;;
73684;SDS011;61985;51.070;14.064;2023-07-09T00:30:19;9.38;;;6.05;;
73684;SDS011;61985;51.070;14.064;2023-07-09T00:32:47;10.88;;;6.53;;
73684;SDS011;61985;51.070;14.064;2023-07-09T00:35:13;9.75;;;5.72;;
73684;SDS011;61985;51.070;14.064;2023-07-09T00:37:40;9.07;;;5.85;;
73684;SDS011;61985;51.070;14.064;2023-07-09T00:40:13;12.38;;;6.10;;
73684;SDS011;61985;51.070;14.064;2023-07-09T00:42:42;12.65;;;6.32;;
73684;SDS011;61985;51.070;14.064;2023-07-09T00:45:15;9.10;;;6.20;;
73684;SDS011;61985;51.070;14.064;2023-07-09T00:50:15;9.20;;;5.97;;
73684;SDS011;61985;51.070;14.064;2023-07-09T00:52:54;7.95;;;5.53;;
73684;SDS011;61985;51.070;14.064;2023-07-09T00:55:31;8.30;;;5.50;;
73684;SDS011;61985;51.070;14.064;2023-07-09T00:58:01;11.32;;;6.18;;
73684;SDS011;61985;51.070;14.064;2023-07-09T01:00:33;9.75;;;6.00;;
73684;SDS011;61985;51.070;14.064;2023-07-09T01:03:08;10.05;;;6.25;;
73684;SDS011;61985;51.070;14.064;2023-07-09T01:05:37;9.15;;;5.93;;
73684;SDS011;61985;51.070;14.064;2023-07-09T01:08:04;9.48;;;5.47;;
73684;SDS011;61985;51.070;14.064;2023-07-09T01:10:31;9.98;;;5.72;;
73684;SDS011;61985;51.070;14.064;2023-07-09T01:12:56;9.32;;;5.32;;
73684;SDS011;61985;51.070;14.064;2023-07-09T01:15:22;9.63;;;5.35;;
73684;SDS011;61985;51.070;14.064;2023-07-09T01:17:47;9.05;;;5.60;;
73684;SDS011;61985;51.070;14.064;2023-07-09T01:20:16;12.20;;;6.22;;
73684;SDS011;61985;51.070;14.064;2023-07-09T01:22:46;7.68;;;4.97;;
73684;SDS011;61985;51.070;14.064;2023-07-09T01:25:14;8.95;;;5.10;;
73684;SDS011;61985;51.070;14.064;2023-07-09T01:27:42;8.60;;;5.70;;
73684;SDS011;61985;51.070;14.064;2023-07-09T01:30:12;11.27;;;6.03;;
73684;SDS011;61985;51.070;14.064;2023-07-09T01:32:39;9.15;;;5.55;;
73684;SDS011;61985;51.070;14.064;2023-07-09T01:35:10;9.15;;;5.15;;
73684;SDS011;61985;51.070;14.064;2023-07-09T01:37:36;9.45;;;5.88;;
73684;SDS011;61985;51.070;14.064;2023-07-09T01:40:03;9.60;;;5.88;;
73684;SDS011;61985;51.070;14.064;2023-07-09T01:42:30;8.95;;;5.75;;
73684;SDS011;61985;51.070;14.064;2023-07-09T01:44:56;8.85;;;5.80;;
73684;SDS011;61985;51.070;14.064;2023-07-09T01:47:22;10.57;;;5.70;;
73684;SDS011;61985;51.070;14.064;2023-07-09T01:49:52;9.05;;;6.03;;
73684;SDS011;61985;51.070;14.064;2023-07-09T01:52:22;9.70;;;5.68;;
73684;SDS011;61985;51.070;14.064;2023-07-09T01:54:49;9.82;;;6.00;;
73684;SDS011;61985;51.070;14.064;2023-07-09T01:57:25;9.40;;;5.28;;
73684;SDS011;61985;51.070;14.064;2023-07-09T01:59:58;8.27;;;5.68;;
73684;SDS011;61985;51.070;14.064;2023-07-09T02:02:24;13.60;;;6.28;;
73684;SDS011;61985;51.070;14.064;2023-07-09T02:04:51;12.13;;;6.07;;
73684;SDS011;61985;51.070;14.064;2023-07-09T02:07:18;8.88;;;6.13;;
73684;SDS011;61985;51.070;14.064;2023-07-09T02:09:44;11.18;;;6.88;;
73684;SDS011;61985;51.070;14.064;2023-07-09T02:12:10;10.63;;;6.40;;
73684;SDS011;61985;51.070;14.064;2023-07-09T02:14:38;9.50;;;6.22;;
73684;SDS011;61985;51.070;14.064;2023-07-09T02:17:04;10.52;;;6.35;;
73684;SDS011;61985;51.070;14.064;2023-07-09T02:19:30;9.18;;;5.90;;
73684;SDS011;61985;51.070;14.064;2023-07-09T02:21:55;10.68;;;6.32;;
73684;SDS011;61985;51.070;14.064;2023-07-09T02:24:21;10.65;;;6.25;;
73684;SDS011;61985;51.070;14.064;2023-07-09T02:26:50;10.63;;;6.55;;
73684;SDS011;61985;51.070;14.064;2023-07-09T02:29:16;15.18;;;6.60;;
73684;SDS011;61985;51.070;14.064;2023-07-09T02:31:42;10.70;;;5.88;;
73684;SDS011;61985;51.070;14.064;2023-07-09T02:34:08;11.15;;;6.28;;
73684;SDS011;61985;51.070;14.064;2023-07-09T02:36:33;15.30;;;6.20;;
73684;SDS011;61985;51.070;14.064;2023-07-09T02:38:59;10.65;;;6.50;;
73684;SDS011;61985;51.070;14.064;2023-07-09T02:41:24;10.68;;;6.03;;
73684;SDS011;61985;51.070;14.064;2023-07-09T02:43:49;9.10;;;6.07;;
73684;SDS011;61985;51.070;14.064;2023-07-09T02:46:15;8.90;;;5.72;;
73684;SDS011;61985;51.070;14.064;2023-07-09T02:48:40;9.77;;;6.00;;
73684;SDS011;61985;51.070;14.064;2023-07-09T02:51:05;11.80;;;6.45;;
73684;SDS011;61985;51.070;14.064;2023-07-09T02:53:31;12.18;;;6.10;;
73684;SDS011;61985;51.070;14.064;2023-07-09T02:55:56;11.82;;;6.18;;
73684;SDS011;61985;51.070;14.064;2023-07-09T02:58:21;10.93;;;5.70;;
73684;SDS011;61985;51.070;14.064;2023-07-09T03:00:49;10.77;;;6.20;;
73684;SDS011;61985;51.070;14.064;2023-07-09T03:03:18;12.95;;;5.60;;
73684;SDS011;61985;51.070;14.064;2023-07-09T03:05:45;10.30;;;6.10;;
73684;SDS011;61985;51.070;14.064;2023-07-09T03:08:10;9.18;;;5.60;;
73684;SDS011;61985;51.070;14.064;2023-07-09T03:10:36;9.45;;;5.75;;
73684;SDS011;61985;51.070;14.064;2023-07-09T03:13:01;9.68;;;5.40;;
73684;SDS011;61985;51.070;14.064;2023-07-09T03:15:26;9.38;;;5.68;;
73684;SDS011;61985;51.070;14.064;2023-07-09T03:17:52;10.80;;;5.82;;
73684;SDS011;61985;51.070;14.064;2023-07-09T03:20:17;11.60;;;5.30;;
73684;SDS011;61985;51.070;14.064;2023-07-09T03:22:42;10.23;;;6.07;;
73684;SDS011;61985;51.070;14.064;2023-07-09T03:25:08;8.55;;;5.50;;
73684;SDS011;61985;51.070;14.064;2023-07-09T03:27:33;16.45;;;5.97;;
73684;SDS011;61985;51.070;14.064;2023-07-09T03:29:58;9.55;;;5.63;;
73684;SDS011;61985;51.070;14.064;2023-07-09T03:32:25;10.95;;;5.90;;
73684;SDS011;61985;51.070;14.064;2023-07-09T03:34:50;10.90;;;6.10;;
73684;SDS011;61985;51.070;14.064;2023-07-09T03:37:18;8.02;;;5.47;;
73684;SDS011;61985;51.070;14.064;2023-07-09T03:39:45;8.18;;;5.57;;
73684;SDS011;61985;51.070;14.064;2023-07-09T03:42:10;9.65;;;5.28;;
73684;SDS011;61985;51.070;14.064;2023-07-09T03:44:36;10.70;;;5.80;;
73684;SDS011;61985;51.070;14.064;2023-07-09T03:47:01;8.77;;;5.75;;
73684;SDS011;61985;51.070;14.064;2023-07-09T03:49:26;11.38;;;6.00;;
73684;SDS011;61985;51.070;14.064;2023-07-09T03:51:52;9.23;;;5.28;;
73684;SDS011;61985;51.070;14.064;2023-07-09T03:54:17;8.63;;;5.50;;
73684;SDS011;61985;51.070;14.064;2023-07-09T03:56:42;7.72;;;5.18;;
73684;SDS011;61985;51.070;14.064;2023-07-09T03:59:08;10.48;;;5.70;;
73684;SDS011;61985;51.070;14.064;2023-07-09T04:01:33;8.98;;;5.60;;
73684;SDS011;61985;51.070;14.064;2023-07-09T04:03:58;10.65;;;5.53;;
73684;SDS011;61985;51.070;14.064;2023-07-09T04:06:24;9.15;;;4.72;;
73684;SDS011;61985;51.070;14.064;2023-07-09T04:08:49;8.63;;;5.35;;
73684;SDS011;61985;51.070;14.064;2023-07-09T04:11:14;8.50;;;5.18;;
73684;SDS011;61985;51.070;14.064;2023-07-09T04:13:40;11.32;;;5.45;;
73684;SDS011;61985;51.070;14.064;2023-07-09T04:16:05;10.95;;;5.60;;
73684;SDS011;61985;51.070;14.064;2023-07-09T04:18:30;11.50;;;5.57;;
73684;SDS011;61985;51.070;14.064;2023-07-09T04:20:56;9.15;;;5.50;;
73684;SDS011;61985;51.070;14.064;2023-07-09T04:23:21;11.43;;;6.45;;
73684;SDS011;61985;51.070;14.064;2023-07-09T04:25:46;11.02;;;6.05;;
73684;SDS011;61985;51.070;14.064;2023-07-09T04:28:12;9.75;;;6.25;;
73684;SDS011;61985;51.070;14.064;2023-07-09T04:30:38;9.48;;;6.53;;
73684;SDS011;61985;51.070;14.064;2023-07-09T04:33:03;10.07;;;5.93;;
73684;SDS011;61985;51.070;14.064;2023-07-09T04:35:29;14.02;;;5.80;;
73684;SDS011;61985;51.070;14.064;2023-07-09T04:37:54;11.43;;;6.20;;
73684;SDS011;61985;51.070;14.064;2023-07-09T04:40:19;10.35;;;6.32;;
73684;SDS011;61985;51.070;14.064;2023-07-09T04:42:45;9.35;;;6.57;;
73684;SDS011;61985;51.070;14.064;2023-07-09T04:45:11;8.70;;;5.60;;
73684;SDS011;61985;51.070;14.064;2023-07-09T04:47:37;10.32;;;5.72;;
73684;SDS011;61985;51.070;14.064;2023-07-09T04:50:04;6.97;;;5.03;;
73684;SDS011;61985;51.070;14.064;2023-07-09T04:52:30;8.43;;;5.40;;
73684;SDS011;61985;51.070;14.064;2023-07-09T04:54:56;8.65;;;5.80;;
73684;SDS011;61985;51.070;14.064;2023-07-09T04:57:21;8.15;;;5.43;;
73684;SDS011;61985;51.070;14.064;2023-07-09T04:59:47;9.75;;;6.10;;
73684;SDS011;61985;51.070;14.064;2023-07-09T05:02:14;7.60;;;5.15;;
73684;SDS011;61985;51.070;14.064;2023-07-09T05:04:39;8.38;;;5.70;;
73684;SDS011;61985;51.070;14.064;2023-07-09T05:07:05;8.60;;;5.60;;
73684;SDS011;61985;51.070;14.064;2023-07-09T05:09:30;10.32;;;5.60;;
73684;SDS011;61985;51.070;14.064;2023-07-09T05:11:56;13.20;;;5.68;;
73684;SDS011;61985;51.070;14.064;2023-07-09T05:14:21;9.48;;;6.05;;
73684;SDS011;61985;51.070;14.064;2023-07-09T05:16:46;11.50;;;6.10;;
73684;SDS011;61985;51.070;14.064;2023-07-09T05:19:12;10.18;;;6.22;;
73684;SDS011;61985;51.070;14.064;2023-07-09T05:21:37;9.63;;;5.90;;
73684;SDS011;61985;51.070;14.064;2023-07-09T05:24:03;8.52;;;5.85;;
73684;SDS011;61985;51.070;14.064;2023-07-09T05:26:29;8.27;;;5.28;;
73684;SDS011;61985;51.070;14.064;2023-07-09T05:28:55;9.57;;;5.40;;
73684;SDS011;61985;51.070;14.064;2023-07-09T05:31:21;6.53;;;4.78;;
73684;SDS011;61985;51.070;14.064;2023-07-09T05:33:47;7.85;;;5.20;;
73684;SDS011;61985;51.070;14.064;2023-07-09T05:36:12;8.60;;;4.90;;
73684;SDS011;61985;51.070;14.064;2023-07-09T05:38:41;10.50;;;4.85;;
73684;SDS011;61985;51.070;14.064;2023-07-09T05:41:07;8.15;;;5.28;;
73684;SDS011;61985;51.070;14.064;2023-07-09T05:43:32;10.02;;;5.20;;
73684;SDS011;61985;51.070;14.064;2023-07-09T05:45:58;8.38;;;4.80;;
73684;SDS011;61985;51.070;14.064;2023-07-09T05:48:23;6.15;;;4.32;;
73684;SDS011;61985;51.070;14.064;2023-07-09T05:50:52;11.38;;;4.90;;
73684;SDS011;61985;51.070;14.064;2023-07-09T05:53:18;7.63;;;4.78;;
73684;SDS011;61985;51.070;14.064;2023-07-09T05:55:43;7.30;;;4.50;;
73684;SDS011;61985;51.070;14.064;2023-07-09T05:58:09;13.45;;;4.75;;
73684;SDS011;61985;51.070;14.064;2023-07-09T06:00:34;16.55;;;4.43;;
73684;SDS011;61985;51.070;14.064;2023-07-09T06:03:03;9.60;;;4.28;;
73684;SDS011;61985;51.070;14.064;2023-07-09T06:05:32;9.95;;;4.13;;
73684;SDS011;61985;51.070;14.064;2023-07-09T06:07:58;10.80;;;4.47;;
73684;SDS011;61985;51.070;14.064;2023-07-09T06:10:23;7.00;;;4.22;;
73684;SDS011;61985;51.070;14.064;2023-07-09T06:12:48;8.25;;;3.90;;
73684;SDS011;61985;51.070;14.064;2023-07-09T06:15:14;7.00;;;4.30;;
73684;SDS011;61985;51.070;14.064;2023-07-09T06:17:39;7.85;;;4.60;;
73684;SDS011;61985;51.070;14.064;2023-07-09T06:20:05;6.93;;;4.50;;
73684;SDS011;61985;51.070;14.064;2023-07-09T06:22:30;5.85;;;3.92;;
73684;SDS011;61985;51.070;14.064;2023-07-09T06:24:56;6.57;;;3.95;;
73684;SDS011;61985;51.070;14.064;2023-07-09T06:27:21;5.82;;;3.80;;
73684;SDS011;61985;51.070;14.064;2023-07-09T06:29:46;9.30;;;4.20;;
73684;SDS011;61985;51.070;14.064;2023-07-09T06:32:12;6.72;;;3.97;;
73684;SDS011;61985;51.070;14.064;2023-07-09T06:34:37;12.80;;;4.35;;
73684;SDS011;61985;51.070;14.064;2023-07-09T06:37:02;17.17;;;4.20;;
73684;SDS011;61985;51.070;14.064;2023-07-09T06:39:29;17.73;;;4.40;;
73684;SDS011;61985;51.070;14.064;2023-07-09T06:41:55;6.72;;;3.90;;
73684;SDS011;61985;51.070;14.064;2023-07-09T06:44:20;5.60;;;3.75;;
73684;SDS011;61985;51.070;14.064;2023-07-09T06:46:46;14.05;;;4.20;;
73684;SDS011;61985;51.070;14.064;2023-07-09T06:49:12;8.77;;;4.22;;
73684;SDS011;61985;51.070;14.064;2023-07-09T06:51:38;9.80;;;3.75;;
73684;SDS011;61985;51.070;14.064;2023-07-09T06:54:04;7.05;;;3.33;;
73684;SDS011;61985;51.070;14.064;2023-07-09T06:56:30;6.45;;;3.50;;
73684;SDS011;61985;51.070;14.064;2023-07-09T06:58:56;18.67;;;4.20;;
73684;SDS011;61985;51.070;14.064;2023-07-09T07:01:21;9.18;;;3.70;;
73684;SDS011;61985;51.070;14.064;2023-07-09T07:03:47;6.93;;;4.13;;
73684;SDS011;61985;51.070;14.064;2023-07-09T07:06:12;5.18;;;3.33;;
73684;SDS011;61985;51.070;14.064;2023-07-09T07:08:37;7.88;;;3.60;;
73684;SDS011;61985;51.070;14.064;2023-07-09T07:11:03;8.32;;;3.97;;
73684;SDS011;61985;51.070;14.064;2023-07-09T07:13:33;7.00;;;3.25;;
73684;SDS011;61985;51.070;14.064;2023-07-09T07:16:01;6.85;;;3.80;;
73684;SDS011;61985;51.070;14.064;2023-07-09T07:18:27;5.80;;;3.50;;
73684;SDS011;61985;51.070;14.064;2023-07-09T07:20:53;5.75;;;3.47;;
73684;SDS011;61985;51.070;14.064;2023-07-09T07:23:18;6.35;;;4.00;;
73684;SDS011;61985;51.070;14.064;2023-07-09T07:25:47;9.02;;;3.90;;
73684;SDS011;61985;51.070;14.064;2023-07-09T07:28:12;6.05;;;3.70;;
73684;SDS011;61985;51.070;14.064;2023-07-09T07:30:38;7.05;;;3.80;;
73684;SDS011;61985;51.070;14.064;2023-07-09T07:33:03;6.65;;;3.53;;
73684;SDS011;61985;51.070;14.064;2023-07-09T07:35:28;7.10;;;4.10;;
73684;SDS011;61985;51.070;14.064;2023-07-09T07:37:54;6.97;;;3.90;;
73684;SDS011;61985;51.070;14.064;2023-07-09T07:40:19;6.63;;;4.15;;
73684;SDS011;61985;51.070;14.064;2023-07-09T07:42:44;8.63;;;4.32;;
73684;SDS011;61985;51.070;14.064;2023-07-09T07:45:10;6.70;;;4.80;;
73684;SDS011;61985;51.070;14.064;2023-07-09T07:47:36;9.68;;;5.00;;
73684;SDS011;61985;51.070;14.064;2023-07-09T07:50:01;9.50;;;4.80;;
73684;SDS011;61985;51.070;14.064;2023-07-09T07:52:27;10.00;;;5.30;;
73684;SDS011;61985;51.070;14.064;2023-07-09T07:54:53;11.15;;;5.95;;
73684;SDS011;61985;51.070;14.064;2023-07-09T07:57:19;12.77;;;6.60;;
73684;SDS011;61985;51.070;14.064;2023-07-09T07:59:44;8.90;;;5.93;;
73684;SDS011;61985;51.070;14.064;2023-07-09T08:02:12;7.93;;;5.93;;
73684;SDS011;61985;51.070;14.064;2023-07-09T08:04:39;9.80;;;6.20;;
73684;SDS011;61985;51.070;14.064;2023-07-09T08:07:05;10.35;;;6.07;;
73684;SDS011;61985;51.070;14.064;2023-07-09T08:09:32;8.20;;;6.28;;
73684;SDS011;61985;51.070;14.064;2023-07-09T08:11:58;11.35;;;5.95;;
73684;SDS011;61985;51.070;14.064;2023-07-09T08:14:23;13.73;;;6.15;;
73684;SDS011;61985;51.070;14.064;2023-07-09T08:16:48;10.20;;;6.15;;
73684;SDS011;61985;51.070;14.064;2023-07-09T08:19:14;8.68;;;5.97;;
73684;SDS011;61985;51.070;14.064;2023-07-09T08:21:45;11.30;;;6.28;;
73684;SDS011;61985;51.070;14.064;2023-07-09T08:24:10;8.35;;;5.63;;
73684;SDS011;61985;51.070;14.064;2023-07-09T08:26:35;10.50;;;5.80;;
73684;SDS011;61985;51.070;14.064;2023-07-09T08:29:03;11.07;;;5.95;;
73684;SDS011;61985;51.070;14.064;2023-07-09T08:31:28;8.27;;;5.50;;
73684;SDS011;61985;51.070;14.064;2023-07-09T08:33:53;8.00;;;5.53;;
73684;SDS011;61985;51.070;14.064;2023-07-09T08:36:19;7.70;;;5.35;;
73684;SDS011;61985;51.070;14.064;2023-07-09T08:38:44;9.60;;;5.47;;
73684;SDS011;61985;51.070;14.064;2023-07-09T08:41:20;9.75;;;5.30;;
73684;SDS011;61985;51.070;14.064;2023-07-09T08:49:15;9.67;;;5.50;;
73684;SDS011;61985;51.070;14.064;2023-07-09T08:51:44;8.30;;;4.95;;
73684;SDS011;61985;51.070;14.064;2023-07-09T08:54:16;7.10;;;4.90;;
73684;SDS011;61985;51.070;14.064;2023-07-09T08:56:55;9.60;;;4.80;;
73684;SDS011;61985;51.070;14.064;2023-07-09T08:59:25;7.85;;;4.63;;
73684;SDS011;61985;51.070;14.064;2023-07-09T09:01:52;9.48;;;4.75;;
73684;SDS011;61985;51.070;14.064;2023-07-09T09:04:24;10.43;;;4.35;;
73684;SDS011;61985;51.070;14.064;2023-07-09T09:07:16;7.47;;;4.47;;
73684;SDS011;61985;51.070;14.064;2023-07-09T09:09:47;6.97;;;4.38;;
73684;SDS011;61985;51.070;14.064;2023-07-09T09:12:21;7.97;;;4.30;;
73684;SDS011;61985;51.070;14.064;2023-07-09T09:15:01;6.43;;;4.33;;
73684;SDS011;61985;51.070;14.064;2023-07-09T09:17:30;6.93;;;3.92;;
73684;SDS011;61985;51.070;14.064;2023-07-09T09:20:00;5.47;;;3.70;;
73684;SDS011;61985;51.070;14.064;2023-07-09T09:22:30;5.88;;;3.53;;
73684;SDS011;61985;51.070;14.064;2023-07-09T09:27:40;7.53;;;4.10;;
73684;SDS011;61985;51.070;14.064;2023-07-09T09:30:20;6.78;;;3.60;;
73684;SDS011;61985;51.070;14.064;2023-07-09T09:32:55;7.35;;;3.70;;
73684;SDS011;61985;51.070;14.064;2023-07-09T09:37:53;6.80;;;3.58;;
73684;SDS011;61985;51.070;14.064;2023-07-09T09:40:20;5.20;;;3.58;;
73684;SDS011;61985;51.070;14.064;2023-07-09T09:42:48;6.80;;;3.67;;
73684;SDS011;61985;51.070;14.064;2023-07-09T09:45:18;6.75;;;3.78;;
73684;SDS011;61985;51.070;14.064;2023-07-09T09:47:48;5.97;;;3.67;;
73684;SDS011;61985;51.070;14.064;2023-07-09T09:50:17;5.65;;;3.72;;
73684;SDS011;61985;51.070;14.064;2023-07-09T09:52:45;8.45;;;3.95;;
73684;SDS011;61985;51.070;14.064;2023-07-09T09:55:12;6.13;;;3.53;;
73684;SDS011;61985;51.070;14.064;2023-07-09T09:57:47;6.50;;;4.00;;
73684;SDS011;61985;51.070;14.064;2023-07-09T10:00:14;6.07;;;3.65;;
73684;SDS011;61985;51.070;14.064;2023-07-09T10:02:42;6.90;;;3.65;;
73684;SDS011;61985;51.070;14.064;2023-07-09T10:05:16;6.90;;;3.78;;
73684;SDS011;61985;51.070;14.064;2023-07-09T10:07:55;7.32;;;3.97;;
73684;SDS011;61985;51.070;14.064;2023-07-09T10:10:32;6.40;;;3.90;;
73684;SDS011;61985;51.070;14.064;2023-07-09T10:13:11;7.00;;;3.80;;
73684;SDS011;61985;51.070;14.064;2023-07-09T10:18:59;7.03;;;3.97;;
73684;SDS011;61985;51.070;14.064;2023-07-09T10:21:47;5.30;;;3.75;;
73684;SDS011;61985;51.070;14.064;2023-07-09T10:33:09;7.13;;;4.00;;
73684;SDS011;61985;51.070;14.064;2023-07-09T10:35:49;8.73;;;4.43;;
73684;SDS011;61985;51.070;14.064;2023-07-09T10:41:07;5.97;;;3.75;;
73684;SDS011;61985;51.070;14.064;2023-07-09T10:43:36;6.22;;;3.92;;
73684;SDS011;61985;51.070;14.064;2023-07-09T10:46:16;6.32;;;3.83;;
73684;SDS011;61985;51.070;14.064;2023-07-09T10:48:47;6.65;;;3.80;;
73684;SDS011;61985;51.070;14.064;2023-07-09T10:51:23;6.38;;;3.83;;
73684;SDS011;61985;51.070;14.064;2023-07-09T10:53:52;7.40;;;3.97;;
73684;SDS011;61985;51.070;14.064;2023-07-09T10:59:05;5.28;;;3.72;;
73684;SDS011;61985;51.070;14.064;2023-07-09T11:01:42;6.90;;;3.92;;
73684;SDS011;61985;51.070;14.064;2023-07-09T11:06:56;6.60;;;4.25;;
73684;SDS011;61985;51.070;14.064;2023-07-09T11:09:30;7.22;;;3.92;;
73684;SDS011;61985;51.070;14.064;2023-07-09T11:12:04;5.43;;;3.58;;
73684;SDS011;61985;51.070;14.064;2023-07-09T11:14:43;5.65;;;3.90;;
73684;SDS011;61985;51.070;14.064;2023-07-09T11:17:16;7.93;;;3.80;;
73684;SDS011;61985;51.070;14.064;2023-07-09T11:19:54;5.95;;;3.78;;
73684;SDS011;61985;51.070;14.064;2023-07-09T11:22:22;6.20;;;3.80;;
73684;SDS011;61985;51.070;14.064;2023-07-09T11:24:50;5.82;;;3.72;;
73684;SDS011;61985;51.070;14.064;2023-07-09T11:27:21;7.60;;;3.58;;
73684;SDS011;61985;51.070;14.064;2023-07-09T11:33:04;6.32;;;4.00;;
73684;SDS011;61985;51.070;14.064;2023-07-09T11:35:53;5.75;;;3.70;;
73684;SDS011;61985;51.070;14.064;2023-07-09T11:38:23;7.63;;;3.65;;
73684;SDS011;61985;51.070;14.064;2023-07-09T11:40:53;10.85;;;3.72;;
73684;SDS011;61985;51.070;14.064;2023-07-09T11:43:29;6.63;;;3.78;;
73684;SDS011;61985;51.070;14.064;2023-07-09T11:46:05;6.00;;;3.80;;
73684;SDS011;61985;51.070;14.064;2023-07-09T11:48:35;7.05;;;3.72;;
73684;SDS011;61985;51.070;14.064;2023-07-09T11:51:05;10.98;;;3.97;;
73684;SDS011;61985;51.070;14.064;2023-07-09T11:53:50;9.80;;;4.38;;
73684;SDS011;61985;51.070;14.064;2023-07-09T11:56:20;6.88;;;4.05;;
73684;SDS011;61985;51.070;14.064;2023-07-09T14:38:52;6.95;;;4.13;;
73684;SDS011;61985;51.070;14.064;2023-07-09T14:41:24;6.28;;;4.13;;
73684;SDS011;61985;51.070;14.064;2023-07-09T14:43:57;6.47;;;3.47;;
73684;SDS011;61985;51.070;14.064;2023-07-09T14:46:23;6.55;;;3.83;;
73684;SDS011;61985;51.070;14.064;2023-07-09T14:48:49;6.53;;;3.90;;
73684;SDS011;61985;51.070;14.064;2023-07-09T14:51:15;6.10;;;3.60;;
73684;SDS011;61985;51.070;14.064;2023-07-09T14:53:41;6.25;;;3.70;;
73684;SDS011;61985;51.070;14.064;2023-07-09T14:56:07;9.70;;;3.72;;
73684;SDS011;61985;51.070;14.064;2023-07-09T14:58:35;5.78;;;4.03;;
73684;SDS011;61985;51.070;14.064;2023-07-09T15:01:01;8.65;;;4.03;;
73684;SDS011;61985;51.070;14.064;2023-07-09T15:03:28;7.47;;;4.40;;
73684;SDS011;61985;51.070;14.064;2023-07-09T15:05:54;7.95;;;4.20;;
73684;SDS011;61985;51.070;14.064;2023-07-09T15:29:20;6.90;;;4.07;;
73684;SDS011;61985;51.070;14.064;2023-07-09T15:32:15;6.30;;;3.58;;
73684;SDS011;61985;51.070;14.064;2023-07-09T15:34:40;7.32;;;3.97;;
73684;SDS011;61985;51.070;14.064;2023-07-09T15:37:14;6.85;;;3.97;;
73684;SDS011;61985;51.070;14.064;2023-07-09T15:39:42;5.80;;;3.95;;
73684;SDS011;61985;51.070;14.064;2023-07-09T15:42:14;6.47;;;4.05;;
73684;SDS011;61985;51.070;14.064;2023-07-09T15:44:40;12.75;;;4.13;;
73684;SDS011;61985;51.070;14.064;2023-07-09T15:47:08;7.10;;;3.90;;
73684;SDS011;61985;51.070;14.064;2023-07-09T15:49:43;7.35;;;3.90;;
73684;SDS011;61985;51.070;14.064;2023-07-09T15:52:09;7.68;;;3.90;;
73684;SDS011;61985;51.070;14.064;2023-07-09T15:54:35;6.88;;;4.10;;
73684;SDS011;61985;51.070;14.064;2023-07-09T15:57:02;5.70;;;4.00;;
73684;SDS011;61985;51.070;14.064;2023-07-09T15:59:29;7.68;;;4.10;;
73684;SDS011;61985;51.070;14.064;2023-07-09T16:01:57;6.90;;;4.07;;
73684;SDS011;61985;51.070;14.064;2023-07-09T16:04:24;6.10;;;3.80;;
73684;SDS011;61985;51.070;14.064;2023-07-09T16:06:50;7.13;;;3.80;;
73684;SDS011;61985;51.070;14.064;2023-07-09T16:09:16;7.18;;;4.00;;
73684;SDS011;61985;51.070;14.064;2023-07-09T16:11:46;7.57;;;3.95;;
73684;SDS011;61985;51.070;14.064;2023-07-09T16:14:20;5.35;;;3.70;;
73684;SDS011;61985;51.070;14.064;2023-07-09T16:16:51;9.52;;;4.07;;
73684;SDS011;61985;51.070;14.064;2023-07-09T16:19:19;6.65;;;4.13;;
73684;SDS011;61985;51.070;14.064;2023-07-09T16:21:45;8.32;;;4.40;;
73684;SDS011;61985;51.070;14.064;2023-07-09T16:24:17;8.48;;;4.30;;
73684;SDS011;61985;51.070;14.064;2023-07-09T16:26:46;6.72;;;3.97;;
73684;SDS011;61985;51.070;14.064;2023-07-09T16:29:17;7.15;;;4.13;;
73684;SDS011;61985;51.070;14.064;2023-07-09T16:31:46;9.07;;;4.07;;
73684;SDS011;61985;51.070;14.064;2023-07-09T16:34:11;6.60;;;4.28;;
73684;SDS011;61985;51.070;14.064;2023-07-09T16:36:37;7.53;;;4.43;;
73684;SDS011;61985;51.070;14.064;2023-07-09T16:39:09;7.00;;;3.63;;
73684;SDS011;61985;51.070;14.064;2023-07-09T16:41:46;9.52;;;4.47;;
73684;SDS011;61985;51.070;14.064;2023-07-09T16:44:12;8.07;;;3.90;;
73684;SDS011;61985;51.070;14.064;2023-07-09T16:46:37;7.28;;;4.10;;
73684;SDS011;61985;51.070;14.064;2023-07-09T16:49:08;7.70;;;4.20;;
73684;SDS011;61985;51.070;14.064;2023-07-09T16:51:57;6.45;;;4.20;;
73684;SDS011;61985;51.070;14.064;2023-07-09T16:54:24;7.90;;;4.00;;
73684;SDS011;61985;51.070;14.064;2023-07-09T16:56:50;8.48;;;4.00;;
73684;SDS011;61985;51.070;14.064;2023-07-09T17:04:34;18.27;;;4.13;;
73684;SDS011;61985;51.070;14.064;2023-07-09T17:06:59;10.93;;;4.25;;
73684;SDS011;61985;51.070;14.064;2023-07-09T17:09:25;8.43;;;4.25;;
73684;SDS011;61985;51.070;14.064;2023-07-09T17:11:52;9.55;;;4.18;;
73684;SDS011;61985;51.070;14.064;2023-07-09T17:14:22;7.57;;;3.97;;
73684;SDS011;61985;51.070;14.064;2023-07-09T17:16:47;8.30;;;4.30;;
73684;SDS011;61985;51.070;14.064;2023-07-09T17:19:12;7.55;;;4.30;;
73684;SDS011;61985;51.070;14.064;2023-07-09T17:21:38;21.13;;;4.47;;
73684;SDS011;61985;51.070;14.064;2023-07-09T17:24:28;7.95;;;4.15;;
73684;SDS011;61985;51.070;14.064;2023-07-09T17:26:53;9.73;;;4.47;;
73684;SDS011;61985;51.070;14.064;2023-07-09T17:29:20;6.72;;;4.68;;
73684;SDS011;61985;51.070;14.064;2023-07-09T17:31:46;12.23;;;4.70;;
73684;SDS011;61985;51.070;14.064;2023-07-09T17:34:14;13.85;;;4.90;;
73684;SDS011;61985;51.070;14.064;2023-07-09T17:36:40;9.15;;;4.90;;
73684;SDS011;61985;51.070;14.064;2023-07-09T17:39:11;7.72;;;4.22;;
73684;SDS011;61985;51.070;14.064;2023-07-09T17:41:41;9.43;;;4.60;;
73684;SDS011;61985;51.070;14.064;2023-07-09T17:44:40;8.07;;;4.45;;
73684;SDS011;61985;51.070;14.064;2023-07-09T17:46:58;6.47;;;4.20;;
73684;SDS011;61985;51.070;14.064;2023-07-09T17:49:31;5.43;;;3.50;;
73684;SDS011;61985;51.070;14.064;2023-07-09T17:51:57;8.45;;;4.60;;
73684;SDS011;61985;51.070;14.064;2023-07-09T17:54:24;6.63;;;4.30;;
73684;SDS011;61985;51.070;14.064;2023-07-09T17:56:51;7.82;;;4.63;;
73684;SDS011;61985;51.070;14.064;2023-07-09T17:59:19;6.75;;;4.35;;
73684;SDS011;61985;51.070;14.064;2023-07-09T18:01:48;7.20;;;4.20;;
73684;SDS011;61985;51.070;14.064;2023-07-09T18:04:27;10.63;;;4.25;;
73684;SDS011;61985;51.070;14.064;2023-07-09T18:06:53;6.75;;;4.53;;
73684;SDS011;61985;51.070;14.064;2023-07-09T18:09:18;8.05;;;4.40;;
73684;SDS011;61985;51.070;14.064;2023-07-09T18:11:45;6.53;;;4.40;;
73684;SDS011;61985;51.070;14.064;2023-07-09T18:14:33;14.85;;;4.40;;
73684;SDS011;61985;51.070;14.064;2023-07-09T18:17:05;7.35;;;4.13;;
73684;SDS011;61985;51.070;14.064;2023-07-09T18:19:38;7.45;;;4.00;;